Time;durP1;ratioP1;P1;durP2;ratioP2;P2;SDS_P1;SDS_P2;PMS_P1;PMS_P2;Temp;Humidity;BMP_temperature;BMP_pressure;BME280_temperature;BME280_humidity;BME280_pressure;Samples;Min_cycle;Max_cycle;Signal;HPM_P1;HPM_P2
2022/02/02 00:00:16;;;;;;;0;0;;;;;;;0;0;0;;;;
2022/02/02 00:01:21;;;;;;;0;0;;;;;;;0;0;0;;;;
2022/02/02 00:02:31;;;;;;;0;0;;;;;;;0;0;0;;;;
2022/02/02 00:03:32;;;;;;;0;0;;;;;;;0;0;0;;;;
2022/02/02 00:04:35;;;;;;;0;0;;;;;;;0;0;0;;;;
2022/02/02 00:05:42;;;;;;;0;0;;;;;;;0;0;0;;;;
2022/02/02 00:06:53;;;;;;;0;0;;;;;;;0;0;0;;;;
2022/02/02 00:07:59;;;;;;;0;0;;;;;;;0;0;0;;;;
2022/02/02 00:09:04;;;;;;;0;0;;;;;;;0;0;0;;;;
2022/02/02 00:10:14;;;;;;;0;0;;;;;;;0;0;0;;;;
2022/02/02 00:15:35;;;;;;;0;0;;;;;;;0;0;0;;;;
2022/02/02 00:16:46;;;;;;;0;0;;;;;;;0;0;0;;;;
2022/02/02 00:17:55;;;;;;;0;0;;;;;;;0;0;0;;;;
2022/02/02 00:18:59;;;;;;;0;0;;;;;;;0;0;0;;;;
2022/02/02 00:20:11;;;;;;;0;0;;;;;;;0;0;0;;;;
2022/02/02 00:21:19;;;;;;;0;0;;;;;;;0;0;0;;;;
2022/02/02 00:22:24;;;;;;;0;0;;;;;;;0;0;0;;;;
2022/02/02 00:23:30;;;;;;;0;0;;;;;;;0;0;0;;;;
2022/02/02 00:24:37;;;;;;;0;0;;;;;;;0;0;0;;;;
2022/02/02 00:25:47;;;;;;;0;0;;;;;;;0;0;0;;;;
2022/02/02 00:26:52;;;;;;;0;0;;;;;;;0;0;0;;;;
2022/02/02 00:27:57;;;;;;;0;0;;;;;;;0;0;0;;;;
2022/02/02 00:29:03;;;;;;;0;0;;;;;;;0;0;0;;;;
2022/02/02 00:30:05;;;;;;;0;0;;;;;;;0;0;0;;;;
2022/02/02 00:31:11;;;;;;;0;0;;;;;;;0;0;0;;;;
2022/02/02 00:32:26;;;;;;;0;0;;;;;;;0;0;0;;;;
2022/02/02 00:33:31;;;;;;;0;0;;;;;;;0;0;0;;;;
2022/02/02 00:34:32;;;;;;;0;0;;;;;;;0;0;0;;;;
2022/02/02 00:35:37;;;;;;;0;0;;;;;;;0;0;0;;;;
2022/02/02 00:36:45;;;;;;;0;0;;;;;;;0;0;0;;;;
2022/02/02 00:37:46;;;;;;;0;0;;;;;;;0;0;0;;;;
2022/02/02 00:38:47;;;;;;;0;0;;;;;;;0;0;0;;;;
2022/02/02 00:39:47;;;;;;;0;0;;;;;;;0;0;0;;;;
2022/02/02 00:40:48;;;;;;;0;0;;;;;;;0;0;0;;;;
2022/02/02 00:41:48;;;;;;;0;0;;;;;;;0;0;0;;;;
2022/02/02 00:42:51;;;;;;;0;0;;;;;;;0;0;0;;;;
2022/02/02 00:43:58;;;;;;;0;0;;;;;;;0;0;0;;;;
2022/02/02 00:44:59;;;;;;;0;0;;;;;;;0;0;0;;;;
2022/02/02 00:45:59;;;;;;;0;0;;;;;;;0;0;0;;;;
2022/02/02 00:47:00;;;;;;;0;0;;;;;;;0;0;0;;;;
2022/02/02 00:48:01;;;;;;;0;0;;;;;;;0;0;0;;;;
2022/02/02 00:49:04;;;;;;;0;0;;;;;;;0;0;0;;;;
2022/02/02 00:50:04;;;;;;;0;0;;;;;;;0;0;0;;;;
2022/02/02 00:51:07;;;;;;;0;0;;;;;;;0;0;0;;;;
2022/02/02 00:52:07;;;;;;;0;0;;;;;;;0;0;0;;;;
2022/02/02 00:53:10;;;;;;;0;0;;;;;;;0;0;0;;;;
2022/02/02 00:54:11;;;;;;;0;0;;;;;;;0;0;0;;;;
2022/02/02 00:55:12;;;;;;;0;0;;;;;;;0;0;0;;;;
2022/02/02 00:56:13;;;;;;;0;0;;;;;;;0;0;0;;;;
2022/02/02 00:57:14;;;;;;;0;0;;;;;;;0;0;0;;;;
2022/02/02 00:58:14;;;;;;;0;0;;;;;;;0;0;0;;;;
2022/02/02 00:59:15;;;;;;;0;0;;;;;;;0;0;0;;;;
2022/02/02 01:00:16;;;;;;;0;0;;;;;;;0;0;0;;;;
2022/02/02 01:01:18;;;;;;;0;0;;;;;;;0;0;0;;;;
2022/02/02 01:02:18;;;;;;;0;0;;;;;;;0;0;0;;;;
2022/02/02 01:03:19;;;;;;;0;0;;;;;;;0;0;0;;;;
2022/02/02 01:04:19;;;;;;;0;0;;;;;;;0;0;0;;;;
2022/02/02 01:05:20;;;;;;;0;0;;;;;;;0;0;0;;;;
2022/02/02 01:06:22;;;;;;;0;0;;;;;;;0;0;0;;;;
2022/02/02 01:07:33;;;;;;;0;0;;;;;;;0;0;0;;;;
2022/02/02 01:08:47;;;;;;;0;0;;;;;;;0;0;0;;;;
2022/02/02 01:09:54;;;;;;;0;0;;;;;;;0;0;0;;;;
2022/02/02 01:10:58;;;;;;;0;0;;;;;;;0;0;0;;;;
2022/02/02 01:12:32;;;;;;;0;0;;;;;;;0;0;0;;;;
2022/02/02 01:14:19;;;;;;;0;0;;;;;;;0;0;0;;;;
2022/02/02 01:20:37;;;;;;;0;0;;;;;;;0;0;0;;;;
2022/02/02 01:21:55;;;;;;;0;0;;;;;;;0;0;0;;;;
2022/02/02 01:28:09;;;;;;;0;0;;;;;;;0;0;0;;;;
2022/02/02 01:29:10;;;;;;;0;0;;;;;;;0;0;0;;;;
2022/02/02 01:30:11;;;;;;;0;0;;;;;;;0;0;0;;;;
2022/02/02 01:31:15;;;;;;;0;0;;;;;;;0;0;0;;;;
2022/02/02 01:32:15;;;;;;;0;0;;;;;;;0;0;0;;;;
2022/02/02 01:33:16;;;;;;;0;0;;;;;;;0;0;0;;;;
2022/02/02 01:34:17;;;;;;;0;0;;;;;;;0;0;0;;;;
2022/02/02 01:35:18;;;;;;;0;0;;;;;;;0;0;0;;;;
2022/02/02 01:36:19;;;;;;;0;0;;;;;;;0;0;0;;;;
2022/02/02 01:37:19;;;;;;;0;0;;;;;;;0;0;0;;;;
2022/02/02 01:38:22;;;;;;;0;0;;;;;;;0;0;0;;;;
2022/02/02 01:39:26;;;;;;;0;0;;;;;;;0;0;0;;;;
2022/02/02 01:40:34;;;;;;;0;0;;;;;;;0;0;0;;;;
2022/02/02 01:41:38;;;;;;;0;0;;;;;;;0;0;0;;;;
2022/02/02 01:42:47;;;;;;;0;0;;;;;;;0;0;0;;;;
2022/02/02 01:43:56;;;;;;;0;0;;;;;;;0;0;0;;;;
2022/02/02 01:45:04;;;;;;;0;0;;;;;;;0;0;0;;;;
2022/02/02 01:46:09;;;;;;;0;0;;;;;;;0;0;0;;;;
2022/02/02 01:47:11;;;;;;;0;0;;;;;;;0;0;0;;;;
2022/02/02 01:48:20;;;;;;;0;0;;;;;;;0;0;0;;;;
2022/02/02 01:50:37;;;;;;;0;0;;;;;;;0;0;0;;;;
2022/02/02 01:51:56;;;;;;;0;0;;;;;;;0;0;0;;;;
2022/02/02 01:53:09;;;;;;;0;0;;;;;;;0;0;0;;;;
2022/02/02 01:54:32;;;;;;;0;0;;;;;;;0;0;0;;;;
2022/02/02 01:55:38;;;;;;;0;0;;;;;;;0;0;0;;;;
2022/02/02 01:56:38;;;;;;;0;0;;;;;;;0;0;0;;;;
2022/02/02 01:57:57;;;;;;;0;0;;;;;;;0;0;0;;;;
2022/02/02 01:59:02;;;;;;;0;0;;;;;;;0;0;0;;;;
2022/02/02 02:00:02;;;;;;;0;0;;;;;;;0;0;0;;;;
2022/02/02 02:01:07;;;;;;;0;0;;;;;;;0;0;0;;;;
2022/02/02 02:02:08;;;;;;;0;0;;;;;;;0;0;0;;;;
2022/02/02 02:03:09;;;;;;;0;0;;;;;;;0;0;0;;;;
2022/02/02 02:04:11;;;;;;;0;0;;;;;;;0;0;0;;;;
2022/02/02 02:05:12;;;;;;;0;0;;;;;;;0;0;0;;;;
2022/02/02 02:06:12;;;;;;;0;0;;;;;;;0;0;0;;;;
2022/02/02 02:07:13;;;;;;;0;0;;;;;;;0;0;0;;;;
2022/02/02 02:08:14;;;;;;;0;0;;;;;;;0;0;0;;;;
2022/02/02 02:09:15;;;;;;;0;0;;;;;;;0;0;0;;;;
2022/02/02 02:10:15;;;;;;;0;0;;;;;;;0;0;0;;;;
2022/02/02 02:11:18;;;;;;;0;0;;;;;;;0;0;0;;;;
2022/02/02 02:12:19;;;;;;;0;0;;;;;;;0;0;0;;;;
2022/02/02 02:13:35;;;;;;;0;0;;;;;;;0;0;0;;;;
2022/02/02 02:14:44;;;;;;;0;0;;;;;;;0;0;0;;;;
2022/02/02 02:15:45;;;;;;;0;0;;;;;;;0;0;0;;;;
2022/02/02 02:16:46;;;;;;;0;0;;;;;;;0;0;0;;;;
2022/02/02 02:17:46;;;;;;;0;0;;;;;;;0;0;0;;;;
2022/02/02 02:18:47;;;;;;;0;0;;;;;;;0;0;0;;;;
2022/02/02 02:19:50;;;;;;;0;0;;;;;;;0;0;0;;;;
2022/02/02 02:20:51;;;;;;;0;0;;;;;;;0;0;0;;;;
2022/02/02 02:21:53;;;;;;;0;0;;;;;;;0;0;0;;;;
2022/02/02 02:22:53;;;;;;;0;0;;;;;;;0;0;0;;;;
2022/02/02 02:23:54;;;;;;;0;0;;;;;;;0;0;0;;;;
2022/02/02 02:24:55;;;;;;;0;0;;;;;;;0;0;0;;;;
2022/02/02 02:25:55;;;;;;;0;0;;;;;;;0;0;0;;;;
2022/02/02 02:26:56;;;;;;;0;0;;;;;;;0;0;0;;;;
2022/02/02 02:28:06;;;;;;;0;0;;;;;;;0;0;0;;;;
2022/02/02 02:29:20;;;;;;;0;0;;;;;;;0;0;0;;;;
2022/02/02 02:30:27;;;;;;;0;0;;;;;;;0;0;0;;;;
2022/02/02 02:31:35;;;;;;;0;0;;;;;;;0;0;0;;;;
2022/02/02 02:32:58;;;;;;;0;0;;;;;;;0;0;0;;;;
2022/02/02 02:34:15;;;;;;;0;0;;;;;;;0;0;0;;;;
2022/02/02 02:35:36;;;;;;;0;0;;;;;;;0;0;0;;;;
2022/02/02 02:36:56;;;;;;;0;0;;;;;;;0;0;0;;;;
2022/02/02 02:38:23;;;;;;;0;0;;;;;;;0;0;0;;;;
2022/02/02 02:39:34;;;;;;;0;0;;;;;;;0;0;0;;;;
2022/02/02 02:55:48;;;;;;;0;0;;;;;;;0;0;0;;;;
2022/02/02 02:56:49;;;;;;;0;0;;;;;;;0;0;0;;;;
2022/02/02 02:57:58;;;;;;;0;0;;;;;;;0;0;0;;;;
2022/02/02 02:59:03;;;;;;;0;0;;;;;;;0;0;0;;;;
2022/02/02 03:00:27;;;;;;;0;0;;;;;;;0;0;0;;;;
2022/02/02 03:01:44;;;;;;;0;0;;;;;;;0;0;0;;;;
2022/02/02 03:03:23;;;;;;;0;0;;;;;;;0;0;0;;;;
2022/02/02 03:29:51;;;;;;;0;0;;;;;;;0;0;0;;;;
2022/02/02 03:30:57;;;;;;;0;0;;;;;;;0;0;0;;;;
2022/02/02 03:32:13;;;;;;;0;0;;;;;;;0;0;0;;;;
2022/02/02 03:49:38;;;;;;;0;0;;;;;;;0;0;0;;;;
2022/02/02 03:51:03;;;;;;;0;0;;;;;;;0;0;0;;;;
2022/02/02 03:52:33;;;;;;;0;0;;;;;;;0;0;0;;;;
2022/02/02 03:53:56;;;;;;;0;0;;;;;;;0;0;0;;;;
2022/02/02 03:55:04;;;;;;;0;0;;;;;;;0;0;0;;;;
2022/02/02 03:56:54;;;;;;;0;0;;;;;;;0;0;0;;;;
2022/02/02 03:58:11;;;;;;;0;0;;;;;;;0;0;0;;;;
2022/02/02 03:59:31;;;;;;;0;0;;;;;;;0;0;0;;;;
2022/02/02 04:00:40;;;;;;;0;0;;;;;;;0;0;0;;;;
2022/02/02 04:02:31;;;;;;;0;0;;;;;;;0;0;0;;;;
2022/02/02 04:03:46;;;;;;;0;0;;;;;;;0;0;0;;;;
2022/02/02 04:04:54;;;;;;;0;0;;;;;;;0;0;0;;;;
2022/02/02 04:06:03;;;;;;;0;0;;;;;;;0;0;0;;;;
2022/02/02 04:07:07;;;;;;;0;0;;;;;;;0;0;0;;;;
2022/02/02 04:08:24;;;;;;;0;0;;;;;;;0;0;0;;;;
2022/02/02 04:09:24;;;;;;;0;0;;;;;;;0;0;0;;;;
2022/02/02 04:10:25;;;;;;;0;0;;;;;;;0;0;0;;;;
2022/02/02 04:11:32;;;;;;;0;0;;;;;;;0;0;0;;;;
2022/02/02 04:12:44;;;;;;;0;0;;;;;;;0;0;0;;;;
2022/02/02 04:15:43;;;;;;;0;0;;;;;;;0;0;0;;;;
2022/02/02 04:17:23;;;;;;;0;0;;;;;;;0;0;0;;;;
2022/02/02 04:37:46;;;;;;;0;0;;;;;;;0;0;0;;;;
2022/02/02 04:52:51;;;;;;;0;0;;;;;;;0;0;0;;;;
2022/02/02 04:54:15;;;;;;;0;0;;;;;;;0;0;0;;;;
2022/02/02 04:55:26;;;;;;;0;0;;;;;;;0;0;0;;;;
2022/02/02 04:56:53;;;;;;;0;0;;;;;;;0;0;0;;;;
2022/02/02 04:58:06;;;;;;;0;0;;;;;;;0;0;0;;;;
2022/02/02 04:59:17;;;;;;;0;0;;;;;;;0;0;0;;;;
2022/02/02 05:01:01;;;;;;;0;0;;;;;;;0;0;0;;;;
2022/02/02 05:02:45;;;;;;;0;0;;;;;;;0;0;0;;;;
2022/02/02 05:04:02;;;;;;;0;0;;;;;;;0;0;0;;;;
2022/02/02 05:06:08;;;;;;;0;0;;;;;;;0;0;0;;;;
2022/02/02 05:07:13;;;;;;;0;0;;;;;;;0;0;0;;;;
2022/02/02 05:08:21;;;;;;;0;0;;;;;;;0;0;0;;;;
2022/02/02 05:09:34;;;;;;;0;0;;;;;;;0;0;0;;;;
2022/02/02 05:10:44;;;;;;;0;0;;;;;;;0;0;0;;;;
2022/02/02 05:12:15;;;;;;;0;0;;;;;;;0;0;0;;;;
2022/02/02 05:15:23;;;;;;;0;0;;;;;;;0;0;0;;;;
2022/02/02 05:16:36;;;;;;;0;0;;;;;;;0;0;0;;;;
2022/02/02 05:17:54;;;;;;;0;0;;;;;;;0;0;0;;;;
2022/02/02 05:19:25;;;;;;;0;0;;;;;;;0;0;0;;;;
2022/02/02 05:26:53;;;;;;;0;0;;;;;;;0;0;0;;;;
2022/02/02 05:45:23;;;;;;;0;0;;;;;;;0;0;0;;;;
2022/02/02 05:51:48;;;;;;;0;0;;;;;;;0;0;0;;;;
2022/02/02 05:52:49;;;;;;;0;0;;;;;;;0;0;0;;;;
2022/02/02 05:53:50;;;;;;;0;0;;;;;;;0;0;0;;;;
2022/02/02 05:54:52;;;;;;;0;0;;;;;;;0;0;0;;;;
2022/02/02 05:55:52;;;;;;;0;0;;;;;;;0;0;0;;;;
2022/02/02 05:56:53;;;;;;;0;0;;;;;;;0;0;0;;;;
2022/02/02 05:57:56;;;;;;;0;0;;;;;;;0;0;0;;;;
2022/02/02 05:58:58;;;;;;;0;0;;;;;;;0;0;0;;;;
2022/02/02 06:00:00;;;;;;;0;0;;;;;;;0;0;0;;;;
2022/02/02 06:01:00;;;;;;;0;0;;;;;;;0;0;0;;;;
2022/02/02 06:02:01;;;;;;;0;0;;;;;;;0;0;0;;;;
2022/02/02 06:03:02;;;;;;;0;0;;;;;;;0;0;0;;;;
2022/02/02 06:04:10;;;;;;;0;0;;;;;;;0;0;0;;;;
2022/02/02 06:05:14;;;;;;;0;0;;;;;;;0;0;0;;;;
2022/02/02 06:06:15;;;;;;;0;0;;;;;;;0;0;0;;;;
2022/02/02 06:07:17;;;;;;;0;0;;;;;;;0;0;0;;;;
2022/02/02 06:08:17;;;;;;;0;0;;;;;;;0;0;0;;;;
2022/02/02 06:09:18;;;;;;;0;0;;;;;;;0;0;0;;;;
2022/02/02 06:10:24;;;;;;;0;0;;;;;;;0;0;0;;;;
2022/02/02 06:11:24;;;;;;;0;0;;;;;;;0;0;0;;;;
2022/02/02 06:12:25;;;;;;;0;0;;;;;;;0;0;0;;;;
2022/02/02 06:13:38;;;;;;;0;0;;;;;;;0;0;0;;;;
2022/02/02 06:14:40;;;;;;;0;0;;;;;;;0;0;0;;;;
2022/02/02 06:15:43;;;;;;;0;0;;;;;;;0;0;0;;;;
2022/02/02 06:16:44;;;;;;;0;0;;;;;;;0;0;0;;;;
2022/02/02 06:17:49;;;;;;;0;0;;;;;;;0;0;0;;;;
2022/02/02 06:18:54;;;;;;;0;0;;;;;;;0;0;0;;;;
2022/02/02 06:19:56;;;;;;;0;0;;;;;;;0;0;0;;;;
2022/02/02 06:20:57;;;;;;;0;0;;;;;;;0;0;0;;;;
2022/02/02 06:22:00;;;;;;;0;0;;;;;;;0;0;0;;;;
2022/02/02 06:23:08;;;;;;;0;0;;;;;;;0;0;0;;;;
2022/02/02 06:24:13;;;;;;;0;0;;;;;;;0;0;0;;;;
2022/02/02 06:25:16;;;;;;;0;0;;;;;;;0;0;0;;;;
2022/02/02 06:26:21;;;;;;;0;0;;;;;;;0;0;0;;;;
2022/02/02 06:27:25;;;;;;;0;0;;;;;;;0;0;0;;;;
2022/02/02 06:28:27;;;;;;;0;0;;;;;;;0;0;0;;;;
2022/02/02 06:29:32;;;;;;;0;0;;;;;;;0;0;0;;;;
2022/02/02 06:30:36;;;;;;;0;0;;;;;;;0;0;0;;;;
2022/02/02 06:31:36;;;;;;;0;0;;;;;;;0;0;0;;;;
2022/02/02 06:32:40;;;;;;;0;0;;;;;;;0;0;0;;;;
2022/02/02 06:33:46;;;;;;;0;0;;;;;;;0;0;0;;;;
2022/02/02 06:50:02;;;;;;;0;0;;;;;;;0;0;0;;;;
2022/02/02 06:51:11;;;;;;;0;0;;;;;;;0;0;0;;;;
2022/02/02 06:52:17;;;;;;;0;0;;;;;;;0;0;0;;;;
2022/02/02 06:53:28;;;;;;;0;0;;;;;;;0;0;0;;;;
2022/02/02 06:54:44;;;;;;;0;0;;;;;;;0;0;0;;;;
2022/02/02 06:56:03;;;;;;;0;0;;;;;;;0;0;0;;;;
2022/02/02 06:57:14;;;;;;;0;0;;;;;;;0;0;0;;;;
2022/02/02 06:58:28;;;;;;;0;0;;;;;;;0;0;0;;;;
2022/02/02 06:59:49;;;;;;;0;0;;;;;;;0;0;0;;;;
2022/02/02 07:00:57;;;;;;;0;0;;;;;;;0;0;0;;;;
2022/02/02 07:02:09;;;;;;;0;0;;;;;;;0;0;0;;;;
2022/02/02 07:03:17;;;;;;;0;0;;;;;;;0;0;0;;;;
2022/02/02 07:04:27;;;;;;;0;0;;;;;;;0;0;0;;;;
2022/02/02 07:06:02;;;;;;;0;0;;;;;;;0;0;0;;;;
2022/02/02 07:07:16;;;;;;;0;0;;;;;;;0;0;0;;;;
2022/02/02 07:08:31;;;;;;;0;0;;;;;;;0;0;0;;;;
2022/02/02 07:09:51;;;;;;;0;0;;;;;;;0;0;0;;;;
2022/02/02 07:11:07;;;;;;;0;0;;;;;;;0;0;0;;;;
2022/02/02 07:12:16;;;;;;;0;0;;;;;;;0;0;0;;;;
2022/02/02 07:13:26;;;;;;;0;0;;;;;;;0;0;0;;;;
2022/02/02 07:14:40;;;;;;;0;0;;;;;;;0;0;0;;;;
2022/02/02 07:15:54;;;;;;;0;0;;;;;;;0;0;0;;;;
2022/02/02 07:17:09;;;;;;;0;0;;;;;;;0;0;0;;;;
2022/02/02 07:18:21;;;;;;;0;0;;;;;;;0;0;0;;;;
2022/02/02 07:19:36;;;;;;;0;0;;;;;;;0;0;0;;;;
2022/02/02 07:20:47;;;;;;;0;0;;;;;;;0;0;0;;;;
2022/02/02 07:22:08;;;;;;;0;0;;;;;;;0;0;0;;;;
2022/02/02 07:23:24;;;;;;;0;0;;;;;;;0;0;0;;;;
2022/02/02 07:24:52;;;;;;;0;0;;;;;;;0;0;0;;;;
2022/02/02 07:26:27;;;;;;;0;0;;;;;;;0;0;0;;;;
2022/02/02 07:27:43;;;;;;;0;0;;;;;;;0;0;0;;;;
2022/02/02 07:28:55;;;;;;;0;0;;;;;;;0;0;0;;;;
2022/02/02 07:30:05;;;;;;;0;0;;;;;;;0;0;0;;;;
2022/02/02 07:31:21;;;;;;;0;0;;;;;;;0;0;0;;;;
2022/02/02 07:32:36;;;;;;;0;0;;;;;;;0;0;0;;;;
2022/02/02 07:33:39;;;;;;;0;0;;;;;;;0;0;0;;;;
2022/02/02 07:34:47;;;;;;;0;0;;;;;;;0;0;0;;;;
2022/02/02 07:36:02;;;;;;;0;0;;;;;;;0;0;0;;;;
2022/02/02 07:37:04;;;;;;;0;0;;;;;;;0;0;0;;;;
2022/02/02 07:38:07;;;;;;;0;0;;;;;;;0;0;0;;;;
2022/02/02 07:39:13;;;;;;;0;0;;;;;;;0;0;0;;;;
2022/02/02 07:40:14;;;;;;;0;0;;;;;;;0;0;0;;;;
2022/02/02 07:41:15;;;;;;;0;0;;;;;;;0;0;0;;;;
2022/02/02 07:42:23;;;;;;;0;0;;;;;;;0;0;0;;;;
2022/02/02 07:43:26;;;;;;;0;0;;;;;;;0;0;0;;;;
2022/02/02 07:44:28;;;;;;;0;0;;;;;;;0;0;0;;;;
2022/02/02 07:45:35;;;;;;;0;0;;;;;;;0;0;0;;;;
2022/02/02 07:46:36;;;;;;;0;0;;;;;;;0;0;0;;;;
2022/02/02 07:47:38;;;;;;;0;0;;;;;;;0;0;0;;;;
2022/02/02 07:48:40;;;;;;;0;0;;;;;;;0;0;0;;;;
2022/02/02 07:49:41;;;;;;;0;0;;;;;;;0;0;0;;;;
2022/02/02 07:50:45;;;;;;;0;0;;;;;;;0;0;0;;;;
2022/02/02 07:51:50;;;;;;;0;0;;;;;;;0;0;0;;;;
2022/02/02 07:52:51;;;;;;;0;0;;;;;;;0;0;0;;;;
2022/02/02 07:53:52;;;;;;;0;0;;;;;;;0;0;0;;;;
2022/02/02 07:54:54;;;;;;;0;0;;;;;;;0;0;0;;;;
2022/02/02 07:55:57;;;;;;;0;0;;;;;;;0;0;0;;;;
2022/02/02 07:56:59;;;;;;;0;0;;;;;;;0;0;0;;;;
2022/02/02 07:58:02;;;;;;;0;0;;;;;;;0;0;0;;;;
2022/02/02 07:59:15;;;;;;;0;0;;;;;;;0;0;0;;;;
2022/02/02 08:00:20;;;;;;;0;0;;;;;;;0;0;0;;;;
2022/02/02 08:01:20;;;;;;;0;0;;;;;;;0;0;0;;;;
2022/02/02 08:02:26;;;;;;;0;0;;;;;;;0;0;0;;;;
2022/02/02 08:03:37;;;;;;;0;0;;;;;;;0;0;0;;;;
2022/02/02 08:04:37;;;;;;;0;0;;;;;;;0;0;0;;;;
2022/02/02 08:05:41;;;;;;;0;0;;;;;;;0;0;0;;;;
2022/02/02 08:06:48;;;;;;;0;0;;;;;;;0;0;0;;;;
2022/02/02 08:07:58;;;;;;;0;0;;;;;;;0;0;0;;;;
2022/02/02 08:08:59;;;;;;;0;0;;;;;;;0;0;0;;;;
2022/02/02 08:10:08;;;;;;;0;0;;;;;;;0;0;0;;;;
2022/02/02 08:11:11;;;;;;;0;0;;;;;;;0;0;0;;;;
2022/02/02 08:12:16;;;;;;;0;0;;;;;;;0;0;0;;;;
2022/02/02 08:13:21;;;;;;;0;0;;;;;;;0;0;0;;;;
2022/02/02 08:14:22;;;;;;;0;0;;;;;;;0;0;0;;;;
2022/02/02 08:15:26;;;;;;;0;0;;;;;;;0;0;0;;;;
2022/02/02 08:16:29;;;;;;;0;0;;;;;;;0;0;0;;;;
2022/02/02 08:17:29;;;;;;;0;0;;;;;;;0;0;0;;;;
2022/02/02 08:18:30;;;;;;;0;0;;;;;;;0;0;0;;;;
2022/02/02 08:19:31;;;;;;;0;0;;;;;;;0;0;0;;;;
2022/02/02 08:20:31;;;;;;;0;0;;;;;;;0;0;0;;;;
2022/02/02 08:21:32;;;;;;;0;0;;;;;;;0;0;0;;;;
2022/02/02 08:22:32;;;;;;;0;0;;;;;;;0;0;0;;;;
2022/02/02 08:23:34;;;;;;;0;0;;;;;;;0;0;0;;;;
2022/02/02 08:24:35;;;;;;;0;0;;;;;;;0;0;0;;;;
2022/02/02 08:25:37;;;;;;;0;0;;;;;;;0;0;0;;;;
2022/02/02 08:26:38;;;;;;;0;0;;;;;;;0;0;0;;;;
2022/02/02 08:27:40;;;;;;;0;0;;;;;;;0;0;0;;;;
2022/02/02 08:28:41;;;;;;;0;0;;;;;;;0;0;0;;;;
2022/02/02 08:29:42;;;;;;;0;0;;;;;;;0;0;0;;;;
2022/02/02 08:30:42;;;;;;;0;0;;;;;;;0;0;0;;;;
2022/02/02 08:31:43;;;;;;;0;0;;;;;;;0;0;0;;;;
2022/02/02 08:32:50;;;;;;;0;0;;;;;;;0;0;0;;;;
2022/02/02 08:33:53;;;;;;;0;0;;;;;;;0;0;0;;;;
2022/02/02 08:34:58;;;;;;;0;0;;;;;;;0;0;0;;;;
2022/02/02 08:35:58;;;;;;;0;0;;;;;;;0;0;0;;;;
2022/02/02 08:36:59;;;;;;;0;0;;;;;;;0;0;0;;;;
2022/02/02 08:38:07;;;;;;;0;0;;;;;;;0;0;0;;;;
2022/02/02 08:39:18;;;;;;;0;0;;;;;;;0;0;0;;;;
2022/02/02 08:40:25;;;;;;;0;0;;;;;;;0;0;0;;;;
2022/02/02 08:41:30;;;;;;;0;0;;;;;;;0;0;0;;;;
2022/02/02 08:42:32;;;;;;;0;0;;;;;;;0;0;0;;;;
2022/02/02 08:43:38;;;;;;;0;0;;;;;;;0;0;0;;;;
2022/02/02 08:44:45;;;;;;;0;0;;;;;;;0;0;0;;;;
2022/02/02 08:45:47;;;;;;;0;0;;;;;;;0;0;0;;;;
2022/02/02 08:46:56;;;;;;;0;0;;;;;;;0;0;0;;;;
2022/02/02 08:48:00;;;;;;;0;0;;;;;;;0;0;0;;;;
2022/02/02 08:49:04;;;;;;;0;0;;;;;;;0;0;0;;;;
2022/02/02 08:50:06;;;;;;;0;0;;;;;;;0;0;0;;;;
2022/02/02 08:51:11;;;;;;;0;0;;;;;;;0;0;0;;;;
2022/02/02 08:52:13;;;;;;;0;0;;;;;;;0;0;0;;;;
2022/02/02 08:53:28;;;;;;;0;0;;;;;;;0;0;0;;;;
2022/02/02 08:54:34;;;;;;;0;0;;;;;;;0;0;0;;;;
2022/02/02 08:55:56;;;;;;;0;0;;;;;;;0;0;0;;;;
2022/02/02 08:57:26;;;;;;;0;0;;;;;;;0;0;0;;;;
2022/02/02 08:58:32;;;;;;;0;0;;;;;;;0;0;0;;;;
2022/02/02 08:59:43;;;;;;;0;0;;;;;;;0;0;0;;;;
2022/02/02 09:00:45;;;;;;;0;0;;;;;;;0;0;0;;;;
2022/02/02 09:01:46;;;;;;;0;0;;;;;;;0;0;0;;;;
2022/02/02 09:05:17;;;;;;;0;0;;;;;;;0;0;0;;;;
2022/02/02 09:06:17;;;;;;;0;0;;;;;;;0;0;0;;;;
2022/02/02 09:07:18;;;;;;;0;0;;;;;;;0;0;0;;;;
2022/02/02 09:08:24;;;;;;;0;0;;;;;;;0;0;0;;;;
2022/02/02 09:09:42;;;;;;;0;0;;;;;;;0;0;0;;;;
2022/02/02 09:22:10;;;;;;;4.15;1.8;;;;;;;14.4;88.25;95056.89;;;;
2022/02/02 09:23:27;;;;;;;4.15;1.8;;;;;;;14.4;88.25;95056.89;;;;
2022/02/02 09:24:30;;;;;;;4.15;1.8;;;;;;;14.4;88.25;95056.89;;;;
2022/02/02 09:25:37;;;;;;;4.15;1.8;;;;;;;14.4;88.25;95056.89;;;;
2022/02/02 09:31:55;;;;;;;4.15;1.8;;;;;;;14.4;88.25;95056.89;;;;
2022/02/02 09:33:22;;;;;;;8.150001;2.750001;;;;;;;12.27;89.17188;95067.15;;;;
2022/02/02 09:34:23;;;;;;;8.150001;2.750001;;;;;;;12.27;89.17188;95067.15;;;;
2022/02/02 09:35:24;;;;;;;8.150001;2.750001;;;;;;;12.27;89.17188;95067.15;;;;
2022/02/02 09:36:27;;;;;;;8.150001;2.750001;;;;;;;12.27;89.17188;95067.15;;;;
2022/02/02 09:37:28;;;;;;;8.150001;2.750001;;;;;;;12.27;89.17188;95067.15;;;;
2022/02/02 09:38:29;;;;;;;8.150001;2.750001;;;;;;;12.27;89.17188;95067.15;;;;
2022/02/02 09:39:36;;;;;;;8.150001;2.750001;;;;;;;12.27;89.17188;95067.15;;;;
2022/02/02 09:41:14;;;;;;;8.150001;2.750001;;;;;;;12.27;89.17188;95067.15;;;;
2022/02/02 09:42:19;;;;;;;9.699999;2.8;;;;;;;9.86;100;95087.57;;;;
2022/02/02 09:43:22;;;;;;;9.699999;2.8;;;;;;;9.86;100;95087.57;;;;
2022/02/02 09:44:30;;;;;;;9.699999;2.8;;;;;;;9.86;100;95087.57;;;;
2022/02/02 09:45:31;;;;;;;9.699999;2.8;;;;;;;9.86;100;95087.57;;;;
2022/02/02 09:46:36;;;;;;;9.699999;2.8;;;;;;;9.86;100;95087.57;;;;
2022/02/02 09:47:44;;;;;;;9.699999;2.8;;;;;;;9.86;100;95087.57;;;;
2022/02/02 09:48:49;;;;;;;9.699999;2.8;;;;;;;9.86;100;95087.57;;;;
2022/02/02 09:49:57;;;;;;;9.699999;2.8;;;;;;;9.86;100;95087.57;;;;
2022/02/02 09:51:03;;;;;;;9.699999;2.8;;;;;;;9.86;100;95087.57;;;;
2022/02/02 09:52:10;;;;;;;7.8;2.8;;;;;;;9.96;100;95103.58;;;;
2022/02/02 09:53:18;;;;;;;7.8;2.8;;;;;;;9.96;100;95103.58;;;;
2022/02/02 09:54:23;;;;;;;7.8;2.8;;;;;;;9.96;100;95103.58;;;;
2022/02/02 09:55:49;;;;;;;7.8;2.8;;;;;;;9.96;100;95103.58;;;;
2022/02/02 09:57:25;;;;;;;7.8;2.8;;;;;;;9.96;100;95103.58;;;;
2022/02/02 09:58:53;;;;;;;7.8;2.8;;;;;;;9.96;100;95103.58;;;;
2022/02/02 10:00:01;;;;;;;7.8;2.8;;;;;;;9.96;100;95103.58;;;;
2022/02/02 10:01:16;;;;;;;7.8;2.8;;;;;;;9.96;100;95103.58;;;;
2022/02/02 10:02:30;;;;;;;0;0;;;;;;;0;0;0;;;;
2022/02/02 10:03:46;;;;;;;0;0;;;;;;;0;0;0;;;;
2022/02/02 10:05:12;;;;;;;0;0;;;;;;;0;0;0;;;;
2022/02/02 10:06:20;;;;;;;0;0;;;;;;;0;0;0;;;;
2022/02/02 10:07:35;;;;;;;0;0;;;;;;;0;0;0;;;;
2022/02/02 10:09:13;;;;;;;0;0;;;;;;;0;0;0;;;;
2022/02/02 10:10:34;;;;;;;0;0;;;;;;;0;0;0;;;;
2022/02/02 10:12:30;;;;;;;0;0;;;;;;;0;0;0;;;;
2022/02/02 10:14:15;;;;;;;0;0;;;;;;;0;0;0;;;;
2022/02/02 10:15:34;;;;;;;0;0;;;;;;;0;0;0;;;;
2022/02/02 10:16:34;;;;;;;0;0;;;;;;;0;0;0;;;;
2022/02/02 10:17:42;;;;;;;0;0;;;;;;;0;0;0;;;;
2022/02/02 10:18:43;;;;;;;0;0;;;;;;;0;0;0;;;;
2022/02/02 10:19:44;;;;;;;0;0;;;;;;;0;0;0;;;;
2022/02/02 10:20:44;;;;;;;0;0;;;;;;;0;0;0;;;;
2022/02/02 10:21:50;;;;;;;0;0;;;;;;;0;0;0;;;;
2022/02/02 10:22:53;;;;;;;0;0;;;;;;;0;0;0;;;;
2022/02/02 10:23:56;;;;;;;0;0;;;;;;;0;0;0;;;;
2022/02/02 10:24:59;;;;;;;0;0;;;;;;;0;0;0;;;;
2022/02/02 10:25:59;;;;;;;0;0;;;;;;;0;0;0;;;;
2022/02/02 10:27:13;;;;;;;0;0;;;;;;;0;0;0;;;;
2022/02/02 10:28:22;;;;;;;0;0;;;;;;;0;0;0;;;;
2022/02/02 10:29:28;;;;;;;0;0;;;;;;;0;0;0;;;;
2022/02/02 10:30:37;;;;;;;0;0;;;;;;;0;0;0;;;;
2022/02/02 10:31:39;;;;;;;0;0;;;;;;;0;0;0;;;;
2022/02/02 10:32:42;;;;;;;0;0;;;;;;;0;0;0;;;;
2022/02/02 10:33:44;;;;;;;0;0;;;;;;;0;0;0;;;;
2022/02/02 10:34:44;;;;;;;0;0;;;;;;;0;0;0;;;;
2022/02/02 10:35:45;;;;;;;0;0;;;;;;;0;0;0;;;;
2022/02/02 10:36:47;;;;;;;0;0;;;;;;;0;0;0;;;;
2022/02/02 10:38:17;;;;;;;0;0;;;;;;;0;0;0;;;;
2022/02/02 10:39:20;;;;;;;0;0;;;;;;;0;0;0;;;;
2022/02/02 10:40:20;;;;;;;0;0;;;;;;;0;0;0;;;;
2022/02/02 10:41:33;;;;;;;0;0;;;;;;;0;0;0;;;;
2022/02/02 10:42:43;;;;;;;0;0;;;;;;;0;0;0;;;;
2022/02/02 10:43:47;;;;;;;0;0;;;;;;;0;0;0;;;;
2022/02/02 10:44:53;;;;;;;0;0;;;;;;;0;0;0;;;;
2022/02/02 10:45:54;;;;;;;0;0;;;;;;;0;0;0;;;;
2022/02/02 10:47:00;;;;;;;0;0;;;;;;;0;0;0;;;;
2022/02/02 10:48:14;;;;;;;0;0;;;;;;;0;0;0;;;;
2022/02/02 10:49:22;;;;;;;0;0;;;;;;;0;0;0;;;;
2022/02/02 10:50:31;;;;;;;0;0;;;;;;;0;0;0;;;;
2022/02/02 10:51:39;;;;;;;0;0;;;;;;;0;0;0;;;;
2022/02/02 10:52:45;;;;;;;0;0;;;;;;;0;0;0;;;;
2022/02/02 10:54:07;;;;;;;0;0;;;;;;;0;0;0;;;;
2022/02/02 10:55:28;;;;;;;0;0;;;;;;;0;0;0;;;;
2022/02/02 10:56:35;;;;;;;0;0;;;;;;;0;0;0;;;;
2022/02/02 10:57:51;;;;;;;0;0;;;;;;;0;0;0;;;;
2022/02/02 10:59:21;;;;;;;0;0;;;;;;;0;0;0;;;;
2022/02/02 11:00:31;;;;;;;0;0;;;;;;;0;0;0;;;;
2022/02/02 11:01:36;;;;;;;0;0;;;;;;;0;0;0;;;;
2022/02/02 11:07:49;;;;;;;0;0;;;;;;;0;0;0;;;;
2022/02/02 11:08:54;;;;;;;0;0;;;;;;;0;0;0;;;;
2022/02/02 11:09:57;;;;;;;0;0;;;;;;;0;0;0;;;;
2022/02/02 11:10:59;;;;;;;0;0;;;;;;;0;0;0;;;;
2022/02/02 11:11:59;;;;;;;0;0;;;;;;;0;0;0;;;;
2022/02/02 11:13:02;;;;;;;0;0;;;;;;;0;0;0;;;;
2022/02/02 11:14:04;;;;;;;0;0;;;;;;;0;0;0;;;;
2022/02/02 11:15:26;;;;;;;0;0;;;;;;;0;0;0;;;;
2022/02/02 11:16:32;;;;;;;0;0;;;;;;;0;0;0;;;;
2022/02/02 11:17:35;;;;;;;0;0;;;;;;;0;0;0;;;;
2022/02/02 11:18:47;;;;;;;0;0;;;;;;;0;0;0;;;;
2022/02/02 11:19:48;;;;;;;0;0;;;;;;;0;0;0;;;;
2022/02/02 11:20:52;;;;;;;0;0;;;;;;;0;0;0;;;;
2022/02/02 11:21:53;;;;;;;0;0;;;;;;;0;0;0;;;;
2022/02/02 11:22:53;;;;;;;0;0;;;;;;;0;0;0;;;;
2022/02/02 11:23:57;;;;;;;0;0;;;;;;;0;0;0;;;;
2022/02/02 11:24:58;;;;;;;0;0;;;;;;;0;0;0;;;;
2022/02/02 11:26:26;;;;;;;0;0;;;;;;;0;0;0;;;;
2022/02/02 11:27:44;;;;;;;0;0;;;;;;;0;0;0;;;;
2022/02/02 11:28:46;;;;;;;0;0;;;;;;;0;0;0;;;;
2022/02/02 11:29:48;;;;;;;0;0;;;;;;;0;0;0;;;;
2022/02/02 11:30:49;;;;;;;0;0;;;;;;;0;0;0;;;;
2022/02/02 11:31:50;;;;;;;0;0;;;;;;;0;0;0;;;;
2022/02/02 11:33:08;;;;;;;0;0;;;;;;;0;0;0;;;;
2022/02/02 11:34:24;;;;;;;0;0;;;;;;;0;0;0;;;;
2022/02/02 11:35:25;;;;;;;0;0;;;;;;;0;0;0;;;;
2022/02/02 11:36:33;;;;;;;0;0;;;;;;;0;0;0;;;;
2022/02/02 11:37:36;;;;;;;0;0;;;;;;;0;0;0;;;;
2022/02/02 11:38:55;;;;;;;0;0;;;;;;;0;0;0;;;;
2022/02/02 11:40:02;;;;;;;0;0;;;;;;;0;0;0;;;;
2022/02/02 11:41:05;;;;;;;0;0;;;;;;;0;0;0;;;;
2022/02/02 11:42:20;;;;;;;0;0;;;;;;;0;0;0;;;;
2022/02/02 11:43:40;;;;;;;0;0;;;;;;;0;0;0;;;;
2022/02/02 11:44:54;;;;;;;0;0;;;;;;;0;0;0;;;;
2022/02/02 11:45:55;;;;;;;0;0;;;;;;;0;0;0;;;;
2022/02/02 11:47:06;;;;;;;0;0;;;;;;;0;0;0;;;;
2022/02/02 11:48:18;;;;;;;0;0;;;;;;;0;0;0;;;;
2022/02/02 11:53:34;;;;;;;0;0;;;;;;;0;0;0;;;;
2022/02/02 11:55:07;;;;;;;0;0;;;;;;;0;0;0;;;;
2022/02/02 11:56:39;;;;;;;0;0;;;;;;;0;0;0;;;;
2022/02/02 11:58:16;;;;;;;0;0;;;;;;;0;0;0;;;;
2022/02/02 11:59:32;;;;;;;0;0;;;;;;;0;0;0;;;;
2022/02/02 12:00:56;;;;;;;0;0;;;;;;;0;0;0;;;;
2022/02/02 12:01:57;;;;;;;0;0;;;;;;;0;0;0;;;;
2022/02/02 12:03:30;;;;;;;6.900001;2.9;;;;;;;7.39;100;95174.11;;;;
2022/02/02 12:04:52;;;;;;;6.900001;2.9;;;;;;;7.39;100;95174.11;;;;
2022/02/02 12:06:04;;;;;;;6.900001;2.9;;;;;;;7.39;100;95174.11;;;;
2022/02/02 12:07:15;;;;;;;6.900001;2.9;;;;;;;7.39;100;95174.11;;;;
2022/02/02 12:08:27;;;;;;;6.900001;2.9;;;;;;;7.39;100;95174.11;;;;
2022/02/02 12:09:42;;;;;;;6.900001;2.9;;;;;;;7.39;100;95174.11;;;;
2022/02/02 12:11:00;;;;;;;6.900001;2.9;;;;;;;7.39;100;95174.11;;;;
2022/02/02 12:35:56;;;;;;;7.8;2.900001;;;;;;;7.51;100;95176.48;;;;
2022/02/02 12:47:32;;;;;;;7.45;2.5;;;;;;;10.64;100;95198.07;;;;
2022/02/02 12:48:58;;;;;;;7.45;2.5;;;;;;;10.64;100;95198.07;;;;
2022/02/02 12:50:01;;;;;;;7.45;2.5;;;;;;;10.64;100;95198.07;;;;
2022/02/02 12:55:49;;;;;;;7.45;2.5;;;;;;;10.64;100;95198.07;;;;
2022/02/02 12:56:50;;;;;;;8.1;2.4;;;;;;;10.61;100;95209.88;;;;
2022/02/02 12:57:56;;;;;;;8.1;2.4;;;;;;;10.61;100;95209.88;;;;
2022/02/02 12:58:58;;;;;;;8.1;2.4;;;;;;;10.61;100;95209.88;;;;
2022/02/02 13:00:20;;;;;;;8.1;2.4;;;;;;;10.61;100;95209.88;;;;
2022/02/02 13:01:21;;;;;;;8.1;2.4;;;;;;;10.61;100;95209.88;;;;
2022/02/02 13:02:22;;;;;;;8.1;2.4;;;;;;;10.61;100;95209.88;;;;
2022/02/02 13:03:23;;;;;;;8.1;2.4;;;;;;;10.61;100;95209.88;;;;
2022/02/02 13:04:28;;;;;;;8.1;2.4;;;;;;;10.61;100;95209.88;;;;